Create Custom Reports and Graphics: Custom Report

AM-Roundhouse Btm 6950'

Current Conditions

1/23/22 4:30 AM (-08:00)
Updated Every 15 Minutes
Temp 28.3 °F   3.2
WindChill 28.3 °F
RH 75 %   0
Dew Pt 21.3 °F   3.1
Wet Bulb 25.6 °F   3.0
Wind Dir SW | 229 °
Wind Spd 1.1 mph   3.2
Wind Gust 4.0 mph   9.7
Barometric Press 30.27 inHg   0.07
New Snow 0.0 in
SnowDepth 70.4 in   0.2
Daily Max Temp 31.1 °F   3.2
Daily Min Temp 27.1 °F   2.1
Daily Rain 0.00 In
Yesterday's Max Temp 37.1 °F
Yesterday’s Min Temp 24.2 °F
Yesterday's Max Wind 27.3 mph
Yesterday's Rainfall 0.00 In
Monthly Rain 1.00 In
Seasonal Rainfall 31.11 In
BatVolt 13.2 V

Last 6 Hours

AM-Roundhouse Btm 6950'

15 Minute Data | America/Los_Angeles
as of 1/23/22 4:32 AM PST
Date & Time Temp (°F) RH (%) Dew Pt (°F) Wet Bulb (°F) Wind Dir (°) Wind Spd (mph) Wind Gust (mph) WindChill (°F) Barometric Press (inHg) New Snow (in) SnowDepth (in) Latest Rain (In) Daily Rain (In) Daily Min Temp (°F) Daily Max Temp (°F)
1/23/22 - 0430 28.3 75 21.3 25.6 SW | 229 1.1 4.0 28.3 30.27 0.0 70.4 0.00 0.00 27.1 31.1
1/23/22 - 0415 28.0 75 20.9 25.3 S | 189 0.5 2.3 28.0 30.27 0.0 70.3 0.00 0.00 27.7 31.1
1/23/22 - 0400 27.8 77 21.5 25.4 SSW | 204 0.4 2.2 27.8 30.27 0.2 70.3 0.00 0.00 27.7 31.1
1/23/22 - 0345 29.8 74 22.4 26.9 WSW | 246 0.8 3.1 29.8 30.27 0.0 70.3 0.00 0.00 29.3 31.1
1/23/22 - 0330 29.6 73 22.1 26.7 WSW | 252 1.6 3.8 29.6 30.26 0.0 70.1 0.00 0.00 29.3 31.1
1/23/22 - 0315 29.8 72 22.0 26.8 W | 266 0.9 3.6 29.8 30.27 0.0 70.2 0.00 0.00 29.3 31.1
1/23/22 - 0300 29.9 73 22.1 26.8 SSW | 212 2.3 5.5 29.9 30.26 0.0 70.3 0.00 0.00 29.3 31.1
1/23/22 - 0245 29.4 71 21.3 26.3 SW | 230 0.7 3.7 29.4 30.27 0.0 70.4 0.00 0.00 29.3 31.1
1/23/22 - 0230 30.5 68 21.3 26.9 SSW | 197 1.0 3.2 30.5 30.27 0.0 70.3 0.00 0.00 29.6 31.1
1/23/22 - 0215 30.5 68 21.1 26.8 SSW | 200 1.9 6.6 27.3 30.26 0.0 70.2 0.00 0.00 29.6 31.1
1/23/22 - 0200 30.3 69 21.2 26.7 S | 181 3.5 9.9 24.6 30.26 0.0 70.4 0.00 0.00 29.6 31.1
1/23/22 - 0145 30.4 67 20.9 26.7 S | 189 5.0 10.7 26.4 30.27 0.0 70.4 0.00 0.00 29.6 31.1
1/23/22 - 0130 30.3 68 21.0 26.6 SSW | 193 2.5 8.5 24.6 30.25 0.0 70.4 0.00 0.00 29.6 31.1
1/23/22 - 0115 30.8 65 20.3 26.7 S | 189 3.9 10.5 30.8 30.25 0.0 70.4 0.00 0.00 29.6 31.1
1/23/22 - 0100 30.5 69 21.6 27.0 SSW | 192 2.7 8.9 24.4 30.25 0.0 70.4 0.00 0.00 29.6 31.1
1/23/22 - 0045 31.1 66 20.9 27.1 S | 187 3.7 9.9 31.1 30.26 0.0 70.3 0.00 0.00 29.6 31.1
1/23/22 - 0030 29.6 67 20.1 26.0 WSW | 244 1.2 3.6 29.6 30.26 0.0 70.3 0.00 0.00 29.6 30.7
1/23/22 - 0015 30.3 66 20.4 26.4 SW | 215 0.9 5.0 30.3 30.27 0.0 70.5 0.00 0.00 29.6 30.3
1/23/22 - 0000 29.6 70 21.1 26.3 W | 270 1.9 8.6 29.6 30.27 0.0 70.3 0.00 0.00 24.2 37.1
1/22/22 - 2345 30.5 68 21.2 26.8 SW | 216 1.2 3.6 30.5 30.26 0.0 70.3 0.00 0.00 24.2 37.1
1/22/22 - 2330 30.6 68 21.3 27.0 W | 263 1.9 9.7 27.1 30.26 0.0 70.4 0.00 0.00 24.2 37.1
1/22/22 - 2315 30.3 69 21.4 26.8 WSW | 246 2.2 7.3 26.3 30.26 0.0 70.2 0.00 0.00 24.2 37.1
1/22/22 - 2300 30.6 69 21.6 27.1 S | 188 4.3 10.8 23.6 30.25 0.0 70.3 0.00 0.00 24.2 37.1
1/22/22 - 2245 30.7 66 20.7 26.8 WSW | 241 3.3 9.2 24.9 30.25 0.0 70.4 0.00 0.00 24.2 37.1
Max 31.1 77 22.4 27.1 - 5.0 10.8 31.1 30.27 0.2 70.5 0.00 0.00 29.6 37.1
Avg 30.0 70 21.2 26.6 - 2.1 6.4 28.1 30.26 0.0 70.3 0.00 - - -
Min 27.8 65 20.1 25.3 - 0.4 2.2 23.6 30.25 0.0 70.1 0.00 0.00 24.2 30.3
Total - - - - - - - - - - - 0.00 - - -

Last 30 Days

AM-Roundhouse Btm 6950'

Daily Data | America/Los_Angeles
as of 1/23/22 4:32 AM PST
Date Daily Max Temp (°F) Time of Max Temp Daily Min Temp (°F) Time of Min Temp Wind Spd (mph) Daily Max Wind (mph) Max Wind Dir (°) Time of Max Wind Daily Rain (In) Seasonal Rainfall (In) SnowDepth (in) Max RH (%) Min RH (%) Wet Bulb (°F) WetB Hrs <28F (hrs) Min Press (inHg) Time of Min Press Bat Volt Min Day (V)
1/22/22 37.1 1514 24.2 0542 5.1 27.3 NNW | 347 0140 0.00 31.11 70.3 78 45 25.9 19.4 30.17 0250 13.1
1/21/22 36.8 0107 25.3 0823 3.3 24.5 NNW | 341 1137 0.00 31.11 70.7 74 38 26.2 20.4 30.19 0445 13.1
1/20/22 51.0 1407 28.1 0246 2.0 8.6 SSW | 202 1816 0.00 31.11 71.2 83 36 32.3 8.4 30.25 2355 13.1
1/19/22 43.4 1133 27.7 0701 1.9 10.2 NW | 324 1743 0.00 31.11 71.7 78 43 28.9 12.0 30.14 0010 13.1
1/18/22 45.1 1043 31.6 0602 2.1 7.4 SSW | 210 0152 0.00 31.11 72.0 69 43 30.4 7.5 30.05 0355 13.2
1/17/22 45.5 1043 32.3 0530 2.0 11.3 S | 174 1310 0.00 31.11 72.4 72 27 30.4 6.0 30.04 1405 13.2
1/16/22 49.9 1202 27.6 0123 2.5 14.3 S | 176 1313 0.00 31.11 73.0 58 18 29.0 9.1 30.09 1515 13.1
1/15/22 47.2 1114 26.4 0137 1.8 6.9 SW | 218 1713 0.00 31.11 73.3 73 26 26.6 16.1 30.19 2355 13.2
1/14/22 39.1 1351 27.4 0426 3.0 22.2 N | 351 1525 0.00 31.11 73.9 86 40 29.1 7.3 30.22 0001 13.2
1/13/22 47.5 1123 32.8 2217 5.4 30.0 SE | 132 1141 0.00 31.11 74.5 46 19 31.0 2.8 30.19 1435 13.2
1/12/22 54.2 1153 37.2 0703 3.2 13.2 S | 174 1857 0.00 31.11 75.2 54 17 34.8 0.0 30.29 1640 13.2
1/11/22 48.5 1255 31.1 0545 1.8 8.0 SSW | 206 1308 0.00 31.11 76.3 61 37 31.2 8.5 30.34 1500 13.2
1/10/22 42.8 1119 28.4 0134 2.4 9.9 SSE | 167 0244 0.00 31.11 76.7 62 29 28.1 15.0 30.34 0005 13.2
1/9/22 38.0 1422 24.3 0807 1.9 7.9 SSW | 209 1452 0.00 31.11 77.6 80 35 25.0 18.6 30.18 0020 13.2
1/8/22 32.1 1407 22.6 0646 1.8 9.0 SW | 221 0100 0.00 31.11 78.5 93 53 24.8 22.8 30.10 1435 13.2
1/7/22 39.0 0010 27.2 2355 6.3 32.6 SSE | 149 0317 0.48 31.11 79.5 97 75 31.8 2.1 29.85 0400 13.2
1/6/22 46.2 1104 37.1 0223 5.1 24.1 SSE | 148 2241 0.00 30.63 77.8 92 63 39.0 0.0 29.91 2355 13.2
1/5/22 46.2 2025 32.7 0224 3.4 19.6 SSE | 160 0022 0.00 30.63 79.5 98 57 36.5 0.0 30.17 2310 13.2
1/4/22 34.9 0953 32.4 1818 6.7 32.6 SE | 141 0041 0.41 30.63 81.3 98 84 32.7 0.0 30.01 0010 13.2
1/3/22 32.5 2338 26.6 0415 10.2 43.1 SSE | 160 2255 0.10 30.22 80.3 94 35 24.8 20.5 29.97 1820 13.2
1/2/22 33.3 1404 26.0 0001 5.9 26.6 SE | 137 0906 0.01 30.12 82.5 62 35 24.6 24.0 30.03 2330 13.2
1/1/22 30.2 1410 9.3 0232 1.8 7.1 SW | 222 1640 0.00 30.11 84.7 92 46 17.6 24.0 29.90 0001 13.2
12/31/21 27.3 0055 12.0 2359 4.6 27.8 ESE | 119 0011 0.05 30.11 86.8 96 59 20.7 24.0 29.71 1220 13.2
12/30/21 29.4 1202 23.9 0059 6.7 31.5 SSW | 204 1234 0.00 30.06 89.2 99 82 25.9 24.0 29.74 2315 13.2
12/29/21 26.7 1115 23.4 0117 4.2 19.4 SSE | 158 0910 0.47 30.06 94.0 98 91 24.5 24.0 29.59 0450 13.2
12/28/21 23.6 2355 18.0 0823 5.6 33.0 SSE | 161 0146 0.07 29.59 92.0 96 86 20.3 24.0 29.65 2340 13.2
12/27/21 22.6 0517 17.7 1945 3.9 33.2 SSE | 160 1504 0.98 29.52 95.9 98 87 20.0 24.0 29.56 1330 13.2
12/26/21 20.3 2355 - 0520 0.0 0.0 SSE | 161 0001 0.89 28.54 97.4 97 - - 24.0 29.53 0010 13.2
12/25/21 26.1 1058 19.4 2356 0.0 0.0 SSE | 151 0001 1.52 27.65 81.7 100 97 23.9 24.0 29.52 1750 13.1
12/24/21 30.9 1108 23.2 1557 0.0 0.0 ENE | 71 0001 1.01 26.13 67.4 100 98 27.5 11.2 29.59 0515 13.2
Max 54.2 - 37.2 - 10.2 43.1 - - 1.52 - 97.4 100 98 39.0 24.0 30.34 - 13.2
Avg - - - - 3.5 - - - - - 79.2 - - 27.7 - - - -
Min 20.3 - 9.3 - 0.0 0.0 - - 0.00 - 67.4 46 17 17.6 0.0 29.52 - 13.1
Calm: 0.0%
Calm: 0.0%